Time;durP1;ratioP1;P1;durP2;ratioP2;P2;SDS_P1;SDS_P2;PMS_P1;PMS_P2;Temp;Humidity;BMP_temperature;BMP_pressure;BME280_temperature;BME280_humidity;BME280_pressure;Samples;Min_cycle;Max_cycle;Signal;HPM_P1;HPM_P2
2022/03/09 19:28:02;;;;;;;19.45;8.07;;;5.40;99.10;;;;;;6189533;22;1284848;-58
2022/03/09 19:30:30;;;;;;;13.52;7.05;;;5.90;99.50;;;;;;6288540;22;20027;-57
2022/03/09 19:32:55;;;;;;;12.57;7.30;;;5.30;99.50;;;;;;6292687;22;20071;-58
2022/03/09 19:35:21;;;;;;;11.40;7.38;;;5.40;99.70;;;;;;6293792;22;20118;-58
2022/03/09 19:37:47;;;;;;;11.95;7.75;;;5.20;99.80;;;;;;6289595;22;20039;-56
2022/03/09 19:40:14;;;;;;;15.05;7.40;;;5.10;99.90;;;;;;6294058;22;20103;-56
2022/03/09 19:42:49;;;;;;;10.15;6.88;;;5.10;99.90;;;;;;6293360;22;20023;-56
2022/03/09 19:45:27;;;;;;;13.32;6.68;;;5.00;99.90;;;;;;6279692;22;20030;-56
2022/03/09 19:47:56;;;;;;;12.00;7.78;;;4.90;99.90;;;;;;6293109;22;20015;-56
2022/03/09 19:50:22;;;;;;;12.35;8.20;;;4.90;99.90;;;;;;6293063;22;20858;-56
2022/03/09 19:52:48;;;;;;;11.93;8.10;;;4.80;99.90;;;;;;6283887;22;20371;-56
2022/03/09 19:55:15;;;;;;;16.02;8.43;;;4.80;99.90;;;;;;6262847;22;20015;-56
2022/03/09 19:57:41;;;;;;;15.20;8.07;;;4.70;99.90;;;;;;6262415;22;20033;-56
2022/03/09 20:00:09;;;;;;;10.38;7.15;;;4.60;99.90;;;;;;6262313;22;20632;-58
2022/03/09 20:02:38;;;;;;;15.95;8.05;;;4.60;99.90;;;;;;6261604;22;20015;-64
2022/03/09 20:05:23;;;;;;;15.25;8.23;;;4.50;99.90;;;;;;6261441;22;20077;-59
2022/03/09 20:07:49;;;;;;;14.88;7.85;;;4.40;99.90;;;;;;6261298;22;20102;-62
2022/03/09 20:10:15;;;;;;;12.20;7.80;;;4.40;99.90;;;;;;6262361;22;20023;-61
2022/03/09 20:12:49;;;;;;;13.02;8.90;;;4.40;99.90;;;;;;6262802;22;20493;-56
2022/03/09 20:15:19;;;;;;;13.85;8.40;;;4.30;99.90;;;;;;6234155;22;20359;-56
2022/03/09 20:17:45;;;;;;;11.93;7.63;;;4.30;99.90;;;;;;6261998;22;20073;-57
2022/03/09 20:20:11;;;;;;;14.77;8.05;;;4.30;99.90;;;;;;6262875;22;20357;-57
2022/03/09 20:22:43;;;;;;;15.73;8.35;;;4.20;99.90;;;;;;6261803;22;20312;-56
2022/03/09 20:25:10;;;;;;;12.25;7.78;;;4.10;99.90;;;;;;6262469;22;20292;-57
2022/03/09 20:27:51;;;;;;;10.63;7.15;;;4.10;99.90;;;;;;6262028;22;20015;-56
2022/03/09 20:30:18;;;;;;;12.43;8.02;;;4.00;99.90;;;;;;6207793;22;20442;-56
2022/03/09 20:32:43;;;;;;;12.13;7.18;;;4.00;99.90;;;;;;6260809;22;20018;-56
2022/03/09 20:35:09;;;;;;;10.63;7.03;;;3.90;99.90;;;;;;6260863;22;20032;-60
2022/03/09 20:37:35;;;;;;;15.63;7.60;;;3.90;99.90;;;;;;6262657;22;20027;-60
2022/03/09 20:40:02;;;;;;;12.60;7.45;;;3.80;99.90;;;;;;6261633;22;20021;-56
2022/03/09 20:42:28;;;;;;;13.52;8.00;;;3.70;99.90;;;;;;6263681;22;20429;-57
2022/03/09 20:44:54;;;;;;;12.93;8.07;;;3.70;99.90;;;;;;6263382;22;20055;-57
2022/03/09 20:47:19;;;;;;;14.40;8.05;;;3.70;99.90;;;;;;6263145;22;20027;-56
2022/03/09 20:49:45;;;;;;;12.68;8.38;;;3.60;99.90;;;;;;6263059;22;20018;-56
2022/03/09 20:52:11;;;;;;;16.70;8.35;;;3.50;99.90;;;;;;6262999;22;20817;-59
2022/03/09 20:54:37;;;;;;;14.18;9.23;;;3.50;99.90;;;;;;6262004;22;20030;-57
2022/03/09 20:57:03;;;;;;;12.40;7.80;;;3.50;99.90;;;;;;6263263;22;20027;-56
2022/03/09 20:59:28;;;;;;;11.57;7.80;;;3.40;99.90;;;;;;6263427;22;20089;-56
2022/03/09 21:01:54;;;;;;;13.98;7.88;;;3.40;99.90;;;;;;6261856;22;20023;-57
2022/03/09 21:04:20;;;;;;;15.13;8.38;;;3.40;99.90;;;;;;6261774;22;20082;-56
2022/03/09 21:06:46;;;;;;;12.45;8.48;;;3.40;99.90;;;;;;6262120;22;20015;-56
2022/03/09 21:09:12;;;;;;;12.18;7.55;;;3.40;99.90;;;;;;6262649;22;20055;-56
2022/03/09 21:11:39;;;;;;;12.07;6.97;;;3.30;99.90;;;;;;6262286;22;20016;-56
2022/03/09 21:14:05;;;;;;;11.95;7.45;;;3.30;99.90;;;;;;6263057;22;20019;-56
2022/03/09 21:16:30;;;;;;;13.75;7.70;;;3.30;99.90;;;;;;6263392;22;20077;-56
2022/03/09 21:18:58;;;;;;;13.20;7.93;;;3.30;99.90;;;;;;6261875;22;20023;-59
2022/03/09 21:21:25;;;;;;;12.98;8.07;;;3.20;99.90;;;;;;6262577;22;20047;-56
2022/03/09 21:23:51;;;;;;;11.98;8.20;;;3.20;99.90;;;;;;6263494;22;20508;-60
2022/03/09 21:26:18;;;;;;;10.02;7.70;;;3.10;99.90;;;;;;6264379;22;20011;-56
2022/03/09 21:28:44;;;;;;;13.45;8.63;;;3.10;99.90;;;;;;6262790;22;20027;-56
2022/03/09 21:31:10;;;;;;;15.20;8.52;;;3.10;99.90;;;;;;6263375;22;20028;-56
2022/03/09 21:33:36;;;;;;;13.60;7.40;;;3.00;99.90;;;;;;6263162;22;20434;-56
2022/03/09 21:36:03;;;;;;;11.05;7.40;;;3.00;99.90;;;;;;6263485;22;20019;-65
2022/03/09 21:38:29;;;;;;;14.55;8.85;;;2.90;99.90;;;;;;6263980;22;20393;-56
2022/03/09 21:40:55;;;;;;;12.23;8.48;;;2.90;99.90;;;;;;6236413;22;20102;-56
2022/03/09 21:43:21;;;;;;;11.82;7.57;;;2.80;99.90;;;;;;6264747;22;20113;-56
2022/03/09 21:45:47;;;;;;;15.57;8.15;;;2.90;99.90;;;;;;6264193;22;20070;-56
2022/03/09 21:48:13;;;;;;;13.85;8.80;;;2.90;99.90;;;;;;6264085;22;20454;-59
2022/03/09 21:50:39;;;;;;;12.35;8.32;;;2.80;99.90;;;;;;6265062;22;20058;-56
2022/03/09 21:53:08;;;;;;;16.35;8.00;;;2.70;99.90;;;;;;6263850;22;20067;-57
2022/03/09 21:55:38;;;;;;;13.98;9.13;;;2.70;99.90;;;;;;6264540;22;20022;-56
2022/03/09 21:58:04;;;;;;;13.23;8.05;;;2.60;99.90;;;;;;6264527;22;20531;-56
2022/03/09 22:00:29;;;;;;;12.50;8.60;;;2.60;99.90;;;;;;6264308;22;20397;-56
2022/03/09 22:02:55;;;;;;;12.60;8.23;;;2.60;99.90;;;;;;6264880;22;20047;-56
2022/03/09 22:05:22;;;;;;;11.63;8.32;;;2.50;99.90;;;;;;6264021;22;20319;-56
2022/03/09 22:07:48;;;;;;;19.80;8.82;;;2.50;99.90;;;;;;6264200;22;20046;-56
2022/03/09 22:10:14;;;;;;;13.70;8.40;;;2.50;99.90;;;;;;6263954;22;20030;-56
2022/03/09 22:12:40;;;;;;;13.80;8.35;;;2.40;99.90;;;;;;6263982;22;20016;-56
2022/03/09 22:15:06;;;;;;;12.52;8.27;;;2.30;99.90;;;;;;6264530;22;20342;-56
2022/03/09 22:17:32;;;;;;;15.30;8.93;;;2.30;99.90;;;;;;6264464;22;20333;-59
2022/03/09 22:19:57;;;;;;;14.80;9.27;;;2.30;99.90;;;;;;6264733;22;20073;-56
2022/03/09 22:22:23;;;;;;;13.13;8.43;;;2.20;99.90;;;;;;6263306;22;20080;-58
2022/03/09 22:24:49;;;;;;;13.63;8.43;;;2.10;99.90;;;;;;6235961;22;20442;-56
2022/03/09 22:27:14;;;;;;;13.00;8.80;;;2.10;99.90;;;;;;6264073;22;20019;-56
2022/03/09 22:29:40;;;;;;;11.38;8.55;;;2.10;99.90;;;;;;6263089;22;20020;-60
2022/03/09 22:32:06;;;;;;;11.65;7.35;;;2.10;99.90;;;;;;6263018;22;20030;-59
2022/03/09 22:34:33;;;;;;;14.82;9.20;;;2.10;99.90;;;;;;6236002;22;20027;-59
2022/03/09 22:36:59;;;;;;;12.55;8.57;;;2.10;99.90;;;;;;6263148;22;20450;-60
2022/03/09 22:39:24;;;;;;;15.10;7.50;;;2.10;99.90;;;;;;6263365;22;20022;-59
2022/03/09 22:41:50;;;;;;;13.57;8.73;;;2.00;99.90;;;;;;6232595;22;20450;-58
2022/03/09 22:44:16;;;;;;;15.25;8.73;;;2.00;99.90;;;;;;6262498;22;20016;-59
2022/03/09 22:46:42;;;;;;;13.07;8.57;;;2.00;99.90;;;;;;6262649;22;20099;-58
2022/03/09 22:49:08;;;;;;;14.98;8.07;;;2.00;99.90;;;;;;6235417;22;20473;-59
2022/03/09 22:51:33;;;;;;;12.70;8.90;;;1.90;99.90;;;;;;6263087;22;20024;-57
2022/03/09 22:54:00;;;;;;;13.88;8.07;;;1.90;99.90;;;;;;6262818;22;20473;-59
2022/03/09 22:56:27;;;;;;;14.85;8.75;;;1.90;99.90;;;;;;6263160;22;20019;-59
2022/03/09 22:58:53;;;;;;;15.18;9.15;;;1.80;99.90;;;;;;6262648;22;20095;-56
2022/03/09 23:01:24;;;;;;;13.35;9.70;;;1.80;99.90;;;;;;6262999;22;20016;-56
2022/03/09 23:03:52;;;;;;;12.18;8.25;;;1.90;99.90;;;;;;6233864;22;20077;-56
2022/03/09 23:06:19;;;;;;;15.60;9.82;;;1.70;99.90;;;;;;6261662;22;20043;-55
2022/03/09 23:08:45;;;;;;;20.42;8.60;;;1.70;99.90;;;;;;6263665;22;20397;-56
2022/03/09 23:11:11;;;;;;;23.45;8.93;;;1.70;99.90;;;;;;6265001;22;20087;-56
2022/03/09 23:13:37;;;;;;;13.48;8.13;;;1.60;99.90;;;;;;6268259;22;20095;-55
2022/03/09 23:16:02;;;;;;;16.00;9.75;;;1.60;99.90;;;;;;6241005;22;20020;-56
2022/03/09 23:18:28;;;;;;;17.08;8.18;;;1.60;99.90;;;;;;6267983;22;20085;-59
2022/03/09 23:20:54;;;;;;;13.10;8.63;;;1.60;99.90;;;;;;6269353;22;20031;-56
2022/03/09 23:23:19;;;;;;;15.20;8.82;;;1.60;99.90;;;;;;6268190;22;20042;-56
2022/03/09 23:25:45;;;;;;;13.55;8.35;;;1.60;99.90;;;;;;6268618;22;20031;-56
2022/03/09 23:28:10;;;;;;;13.88;8.88;;;1.50;99.90;;;;;;6268108;22;20027;-56
2022/03/09 23:30:38;;;;;;;13.75;9.93;;;1.50;99.90;;;;;;6268590;22;20016;-56
2022/03/09 23:33:05;;;;;;;17.08;9.68;;;1.60;99.90;;;;;;6268470;22;20024;-56
2022/03/09 23:35:33;;;;;;;15.32;8.70;;;1.50;99.90;;;;;;6240232;22;20015;-56
2022/03/09 23:37:59;;;;;;;17.90;8.73;;;1.40;99.90;;;;;;6268113;22;20047;-64
2022/03/09 23:40:25;;;;;;;11.40;8.27;;;1.40;99.90;;;;;;6268131;22;20016;-60
2022/03/09 23:42:51;;;;;;;13.20;8.93;;;1.40;99.90;;;;;;6268187;22;20194;-56
2022/03/09 23:45:17;;;;;;;14.93;9.43;;;1.40;99.90;;;;;;6268446;22;20073;-58
2022/03/09 23:47:43;;;;;;;16.75;8.82;;;1.40;99.90;;;;;;6268308;22;20024;-57
2022/03/09 23:50:10;;;;;;;15.13;9.15;;;1.40;99.90;;;;;;6268371;22;20437;-60
2022/03/09 23:52:38;;;;;;;13.95;8.10;;;1.40;99.90;;;;;;6268591;22;20053;-57
2022/03/09 23:55:06;;;;;;;17.33;9.27;;;1.30;99.90;;;;;;6268126;22;20027;-60
2022/03/09 23:57:32;;;;;;;16.55;8.93;;;2.10;99.90;;;;;;6268460;22;20090;-58
2022/03/09 23:59:58;;;;;;;14.45;8.43;;;1.30;99.90;;;;;;6241728;22;20051;-64
